sensor_id;sensor_type;location;lat;lon;timestamp;pressure;altitude;pressure_sealevel;temperature;humidity
39363;BME280;25088;43.238;23.110;2023-05-27T00:02:18;96618.88;;;15.99;100.00
39363;BME280;25088;43.238;23.110;2023-05-27T00:04:43;96618.25;;;16.08;100.00
39363;BME280;25088;43.238;23.110;2023-05-27T00:07:09;96619.34;;;16.12;100.00
39363;BME280;25088;43.238;23.110;2023-05-27T00:09:34;96620.66;;;16.14;100.00
39363;BME280;25088;43.238;23.110;2023-05-27T00:12:00;96617.75;;;16.00;100.00
39363;BME280;25088;43.238;23.110;2023-05-27T00:14:26;96620.72;;;16.09;100.00
39363;BME280;25088;43.238;23.110;2023-05-27T00:16:51;96628.50;;;16.02;100.00
39363;BME280;25088;43.238;23.110;2023-05-27T00:19:17;96625.53;;;15.93;100.00
39363;BME280;25088;43.238;23.110;2023-05-27T00:21:42;96618.25;;;15.73;100.00
39363;BME280;25088;43.238;23.110;2023-05-27T00:24:08;96621.91;;;15.64;100.00
39363;BME280;25088;43.238;23.110;2023-05-27T00:26:35;96611.22;;;15.52;100.00
39363;BME280;25088;43.238;23.110;2023-05-27T00:29:00;96613.97;;;15.52;100.00
39363;BME280;25088;43.238;23.110;2023-05-27T00:31:26;96609.91;;;15.39;100.00
39363;BME280;25088;43.238;23.110;2023-05-27T00:33:52;96601.72;;;15.29;100.00
39363;BME280;25088;43.238;23.110;2023-05-27T00:36:18;96603.91;;;15.32;100.00
39363;BME280;25088;43.238;23.110;2023-05-27T00:38:43;96604.44;;;15.34;100.00
39363;BME280;25088;43.238;23.110;2023-05-27T00:41:11;96600.06;;;15.33;100.00
39363;BME280;25088;43.238;23.110;2023-05-27T00:43:37;96599.50;;;15.31;100.00
39363;BME280;25088;43.238;23.110;2023-05-27T00:46:03;96601.72;;;15.29;100.00
39363;BME280;25088;43.238;23.110;2023-05-27T00:48:28;96594.88;;;15.21;100.00
39363;BME280;25088;43.238;23.110;2023-05-27T00:50:54;96584.47;;;15.18;100.00
39363;BME280;25088;43.238;23.110;2023-05-27T00:53:20;96567.13;;;15.18;100.00
39363;BME280;25088;43.238;23.110;2023-05-27T00:55:46;96588.03;;;15.19;100.00
39363;BME280;25088;43.238;23.110;2023-05-27T00:58:12;96591.88;;;15.18;100.00
39363;BME280;25088;43.238;23.110;2023-05-27T01:00:38;96584.16;;;15.20;100.00
39363;BME280;25088;43.238;23.110;2023-05-27T01:03:04;96590.47;;;15.25;100.00
39363;BME280;25088;43.238;23.110;2023-05-27T01:05:32;96577.78;;;15.30;100.00
39363;BME280;25088;43.238;23.110;2023-05-27T01:15:59;96557.69;;;15.34;100.00
39363;BME280;25088;43.238;23.110;2023-05-27T01:18:27;96553.28;;;15.33;100.00
39363;BME280;25088;43.238;23.110;2023-05-27T01:21:02;96553.81;;;15.35;100.00
39363;BME280;25088;43.238;23.110;2023-05-27T01:23:28;96550.53;;;15.33;100.00
39363;BME280;25088;43.238;23.110;2023-05-27T01:25:54;96535.75;;;15.24;100.00
39363;BME280;25088;43.238;23.110;2023-05-27T01:28:19;96530.59;;;15.12;100.00
39363;BME280;25088;43.238;23.110;2023-05-27T01:30:45;96539.31;;;15.24;100.00
39363;BME280;25088;43.238;23.110;2023-05-27T01:33:17;96540.34;;;15.34;100.00
39363;BME280;25088;43.238;23.110;2023-05-27T01:35:52;96526.94;;;15.27;100.00
39363;BME280;25088;43.238;23.110;2023-05-27T01:38:21;96534.06;;;15.28;100.00
39363;BME280;25088;43.238;23.110;2023-05-27T01:40:50;96527.03;;;15.12;100.00
39363;BME280;25088;43.238;23.110;2023-05-27T01:43:17;96512.78;;;15.05;100.00
39363;BME280;25088;43.238;23.110;2023-05-27T01:45:43;96499.91;;;14.95;100.00
39363;BME280;25088;43.238;23.110;2023-05-27T01:48:09;96504.84;;;14.98;100.00
39363;BME280;25088;43.238;23.110;2023-05-27T01:50:37;96513.06;;;15.03;100.00
39363;BME280;25088;43.238;23.110;2023-05-27T01:53:03;96491.94;;;14.93;100.00
39363;BME280;25088;43.238;23.110;2023-05-27T01:55:29;96504.00;;;15.03;100.00
39363;BME280;25088;43.238;23.110;2023-05-27T01:57:56;96478.47;;;14.97;100.00
39363;BME280;25088;43.238;23.110;2023-05-27T02:00:22;96500.66;;;15.06;100.00
39363;BME280;25088;43.238;23.110;2023-05-27T02:02:47;96503.19;;;15.02;100.00
39363;BME280;25088;43.238;23.110;2023-05-27T02:05:13;96494.09;;;15.02;100.00
39363;BME280;25088;43.238;23.110;2023-05-27T02:07:38;96499.28;;;15.08;100.00
39363;BME280;25088;43.238;23.110;2023-05-27T02:10:04;96504.44;;;15.15;100.00
39363;BME280;25088;43.238;23.110;2023-05-27T02:12:30;96502.22;;;15.22;100.00
39363;BME280;25088;43.238;23.110;2023-05-27T02:14:55;96500.44;;;15.36;100.00
39363;BME280;25088;43.238;23.110;2023-05-27T02:17:21;96489.44;;;15.36;100.00
39363;BME280;25088;43.238;23.110;2023-05-27T02:19:46;96469.22;;;15.22;100.00
39363;BME280;25088;43.238;23.110;2023-05-27T02:22:12;96498.53;;;15.37;100.00
39363;BME280;25088;43.238;23.110;2023-05-27T02:24:38;96491.09;;;15.37;100.00
39363;BME280;25088;43.238;23.110;2023-05-27T02:27:04;96499.88;;;15.39;100.00
39363;BME280;25088;43.238;23.110;2023-05-27T02:29:30;96500.66;;;15.45;100.00
39363;BME280;25088;43.238;23.110;2023-05-27T02:31:56;96498.72;;;15.45;100.00
39363;BME280;25088;43.238;23.110;2023-05-27T02:34:21;96501.78;;;15.44;100.00
39363;BME280;25088;43.238;23.110;2023-05-27T02:36:47;96497.63;;;15.46;100.00
39363;BME280;25088;43.238;23.110;2023-05-27T02:39:12;96502.63;;;15.39;100.00
39363;BME280;25088;43.238;23.110;2023-05-27T02:41:38;96487.28;;;15.33;100.00
39363;BME280;25088;43.238;23.110;2023-05-27T02:44:05;96506.16;;;15.45;100.00
39363;BME280;25088;43.238;23.110;2023-05-27T02:46:30;96495.53;;;15.33;100.00
39363;BME280;25088;43.238;23.110;2023-05-27T02:48:56;96511.44;;;15.36;100.00
39363;BME280;25088;43.238;23.110;2023-05-27T02:51:21;96500.50;;;15.26;100.00
39363;BME280;25088;43.238;23.110;2023-05-27T02:53:47;96503.56;;;15.24;100.00
39363;BME280;25088;43.238;23.110;2023-05-27T02:56:13;96509.88;;;15.25;100.00
39363;BME280;25088;43.238;23.110;2023-05-27T02:58:38;96492.63;;;15.14;100.00
39363;BME280;25088;43.238;23.110;2023-05-27T03:01:04;96498.69;;;15.11;100.00
39363;BME280;25088;43.238;23.110;2023-05-27T03:03:30;96513.28;;;15.12;100.00
39363;BME280;25088;43.238;23.110;2023-05-27T03:05:56;96494.91;;;15.07;100.00
39363;BME280;25088;43.238;23.110;2023-05-27T03:08:21;96500.09;;;15.09;100.00
39363;BME280;25088;43.238;23.110;2023-05-27T03:10:47;96508.84;;;15.16;100.00
39363;BME280;25088;43.238;23.110;2023-05-27T03:13:12;96499.47;;;15.22;100.00
39363;BME280;25088;43.238;23.110;2023-05-27T03:15:38;96506.59;;;15.23;100.00
39363;BME280;25088;43.238;23.110;2023-05-27T03:18:03;96492.91;;;15.18;100.00
39363;BME280;25088;43.238;23.110;2023-05-27T03:20:29;96494.03;;;15.12;100.00
39363;BME280;25088;43.238;23.110;2023-05-27T03:22:55;96489.69;;;15.00;100.00
39363;BME280;25088;43.238;23.110;2023-05-27T03:25:20;96500.69;;;15.00;100.00
39363;BME280;25088;43.238;23.110;2023-05-27T03:27:46;96482.94;;;14.83;100.00
39363;BME280;25088;43.238;23.110;2023-05-27T03:30:11;96486.19;;;14.90;100.00
39363;BME280;25088;43.238;23.110;2023-05-27T03:32:37;96483.41;;;14.95;100.00
39363;BME280;25088;43.238;23.110;2023-05-27T03:35:02;96475.75;;;14.92;100.00
39363;BME280;25088;43.238;23.110;2023-05-27T03:37:28;96485.28;;;15.05;100.00
39363;BME280;25088;43.238;23.110;2023-05-27T03:39:53;96500.84;;;15.19;100.00
39363;BME280;25088;43.238;23.110;2023-05-27T03:42:19;96501.56;;;15.35;100.00
39363;BME280;25088;43.238;23.110;2023-05-27T03:44:44;96494.84;;;15.51;100.00
39363;BME280;25088;43.238;23.110;2023-05-27T03:47:10;96482.81;;;15.42;100.00
39363;BME280;25088;43.238;23.110;2023-05-27T03:49:35;96493.13;;;15.56;100.00
39363;BME280;25088;43.238;23.110;2023-05-27T03:52:01;96491.94;;;15.72;100.00
39363;BME280;25088;43.238;23.110;2023-05-27T03:54:27;96484.81;;;15.66;100.00
39363;BME280;25088;43.238;23.110;2023-05-27T03:56:52;96498.72;;;15.80;100.00
39363;BME280;25088;43.238;23.110;2023-05-27T03:59:17;96486.66;;;15.75;100.00
39363;BME280;25088;43.238;23.110;2023-05-27T04:01:44;96497.81;;;15.89;100.00
39363;BME280;25088;43.238;23.110;2023-05-27T04:04:10;96476.66;;;15.85;100.00
39363;BME280;25088;43.238;23.110;2023-05-27T04:06:35;96496.88;;;15.99;100.00
39363;BME280;25088;43.238;23.110;2023-05-27T04:09:01;96492.44;;;16.03;100.00
39363;BME280;25088;43.238;23.110;2023-05-27T04:11:29;96497.09;;;16.08;100.00
39363;BME280;25088;43.238;23.110;2023-05-27T04:13:55;96498.25;;;16.01;100.00
39363;BME280;25088;43.238;23.110;2023-05-27T04:16:21;96494.13;;;15.99;100.00
39363;BME280;25088;43.238;23.110;2023-05-27T04:18:47;96504.69;;;16.16;100.00
39363;BME280;25088;43.238;23.110;2023-05-27T04:21:20;96479.44;;;16.09;100.00
39363;BME280;25088;43.238;23.110;2023-05-27T04:23:45;96500.06;;;16.35;100.00
39363;BME280;25088;43.238;23.110;2023-05-27T04:26:11;96496.69;;;16.43;100.00
39363;BME280;25088;43.238;23.110;2023-05-27T04:28:37;96502.06;;;16.53;100.00
39363;BME280;25088;43.238;23.110;2023-05-27T04:31:04;96508.50;;;16.68;100.00
39363;BME280;25088;43.238;23.110;2023-05-27T04:33:30;96504.28;;;16.75;100.00
39363;BME280;25088;43.238;23.110;2023-05-27T04:35:55;96494.03;;;16.81;100.00
39363;BME280;25088;43.238;23.110;2023-05-27T04:38:22;96509.56;;;16.96;100.00
39363;BME280;25088;43.238;23.110;2023-05-27T04:40:50;96502.22;;;17.05;100.00
39363;BME280;25088;43.238;23.110;2023-05-27T04:43:22;96500.16;;;17.16;100.00
39363;BME280;25088;43.238;23.110;2023-05-27T04:45:48;96501.78;;;17.36;100.00
39363;BME280;25088;43.238;23.110;2023-05-27T04:48:14;96507.72;;;17.62;100.00
39363;BME280;25088;43.238;23.110;2023-05-27T04:50:40;96499.72;;;17.79;100.00
39363;BME280;25088;43.238;23.110;2023-05-27T04:53:06;96467.78;;;17.73;100.00
39363;BME280;25088;43.238;23.110;2023-05-27T04:55:32;96513.09;;;18.18;100.00
39363;BME280;25088;43.238;23.110;2023-05-27T04:57:58;96512.31;;;18.45;100.00
39363;BME280;25088;43.238;23.110;2023-05-27T05:00:24;96508.53;;;18.69;97.16
39363;BME280;25088;43.238;23.110;2023-05-27T05:03:10;96517.16;;;18.95;95.83
39363;BME280;25088;43.238;23.110;2023-05-27T05:05:45;96519.25;;;19.11;93.74
39363;BME280;25088;43.238;23.110;2023-05-27T05:08:10;96521.44;;;19.37;92.72
39363;BME280;25088;43.238;23.110;2023-05-27T05:10:36;96520.75;;;19.54;89.63
39363;BME280;25088;43.238;23.110;2023-05-27T05:13:04;96533.97;;;19.71;88.77
39363;BME280;25088;43.238;23.110;2023-05-27T05:15:29;96525.41;;;19.81;87.00
39363;BME280;25088;43.238;23.110;2023-05-27T05:17:56;96525.69;;;20.02;86.78
39363;BME280;25088;43.238;23.110;2023-05-27T05:20:21;96530.03;;;20.17;85.02
39363;BME280;25088;43.238;23.110;2023-05-27T05:22:47;96524.16;;;20.18;84.72
39363;BME280;25088;43.238;23.110;2023-05-27T05:25:13;96542.53;;;20.36;81.63
39363;BME280;25088;43.238;23.110;2023-05-27T05:27:39;96532.00;;;20.47;80.76
39363;BME280;25088;43.238;23.110;2023-05-27T05:30:05;96532.41;;;20.63;83.64
39363;BME280;25088;43.238;23.110;2023-05-27T05:32:31;96535.22;;;20.72;81.16
39363;BME280;25088;43.238;23.110;2023-05-27T05:34:56;96526.94;;;20.80;80.28
39363;BME280;25088;43.238;23.110;2023-05-27T05:37:22;96528.13;;;20.97;79.07
39363;BME280;25088;43.238;23.110;2023-05-27T05:39:49;96546.78;;;21.13;77.43
39363;BME280;25088;43.238;23.110;2023-05-27T05:42:14;96545.94;;;21.13;77.04
39363;BME280;25088;43.238;23.110;2023-05-27T05:44:40;96551.00;;;21.11;73.13
39363;BME280;25088;43.238;23.110;2023-05-27T05:47:05;96552.31;;;21.05;73.51
39363;BME280;25088;43.238;23.110;2023-05-27T05:49:31;96550.81;;;21.07;73.22
39363;BME280;25088;43.238;23.110;2023-05-27T05:51:56;96528.22;;;20.83;74.38
39363;BME280;25088;43.238;23.110;2023-05-27T05:54:21;96552.94;;;21.02;75.32
39363;BME280;25088;43.238;23.110;2023-05-27T05:56:47;96552.00;;;21.15;74.44
39363;BME280;25088;43.238;23.110;2023-05-27T05:59:12;96561.19;;;21.33;72.37
39363;BME280;25088;43.238;23.110;2023-05-27T06:01:38;96566.13;;;21.45;70.93
39363;BME280;25088;43.238;23.110;2023-05-27T06:04:03;96561.22;;;21.67;70.87
39363;BME280;25088;43.238;23.110;2023-05-27T06:06:30;96562.88;;;22.12;68.02
39363;BME280;25088;43.238;23.110;2023-05-27T06:08:56;96564.13;;;22.49;67.09
39363;BME280;25088;43.238;23.110;2023-05-27T06:11:21;96555.56;;;22.63;66.22
39363;BME280;25088;43.238;23.110;2023-05-27T06:13:47;96562.44;;;22.57;69.45
39363;BME280;25088;43.238;23.110;2023-05-27T06:16:13;96520.47;;;22.32;68.29
39363;BME280;25088;43.238;23.110;2023-05-27T06:18:38;96568.78;;;22.75;66.11
39363;BME280;25088;43.238;23.110;2023-05-27T06:21:04;96570.72;;;22.83;65.42
39363;BME280;25088;43.238;23.110;2023-05-27T06:23:29;96572.91;;;23.07;62.99
39363;BME280;25088;43.238;23.110;2023-05-27T06:25:55;96576.97;;;23.18;61.59
39363;BME280;25088;43.238;23.110;2023-05-27T06:28:20;96580.25;;;23.41;59.41
39363;BME280;25088;43.238;23.110;2023-05-27T06:30:45;96577.44;;;23.50;58.73
39363;BME280;25088;43.238;23.110;2023-05-27T06:33:11;96575.22;;;23.85;58.13
39363;BME280;25088;43.238;23.110;2023-05-27T06:35:36;96584.38;;;24.06;55.35
39363;BME280;25088;43.238;23.110;2023-05-27T06:38:02;96580.03;;;24.17;54.69
39363;BME280;25088;43.238;23.110;2023-05-27T06:40:27;96578.28;;;24.46;53.18
39363;BME280;25088;43.238;23.110;2023-05-27T06:42:53;96562.53;;;24.62;52.86
39363;BME280;25088;43.238;23.110;2023-05-27T06:45:19;96577.72;;;25.10;52.13
39363;BME280;25088;43.238;23.110;2023-05-27T06:47:45;96577.38;;;25.24;51.02
39363;BME280;25088;43.238;23.110;2023-05-27T06:50:10;96582.28;;;25.27;50.35
39363;BME280;25088;43.238;23.110;2023-05-27T06:52:36;96558.03;;;25.56;48.07
39363;BME280;25088;43.238;23.110;2023-05-27T06:55:01;96576.50;;;25.97;49.11
39363;BME280;25088;43.238;23.110;2023-05-27T06:57:27;96563.97;;;26.47;47.06
39363;BME280;25088;43.238;23.110;2023-05-27T06:59:54;96576.59;;;26.28;47.70
39363;BME280;25088;43.238;23.110;2023-05-27T07:02:19;96588.19;;;26.15;46.93
39363;BME280;25088;43.238;23.110;2023-05-27T07:04:45;96586.88;;;26.24;46.76
39363;BME280;25088;43.238;23.110;2023-05-27T07:07:10;96563.25;;;26.38;44.92
39363;BME280;25088;43.238;23.110;2023-05-27T07:09:36;96566.00;;;27.10;44.49
39363;BME280;25088;43.238;23.110;2023-05-27T07:12:02;96572.06;;;27.27;45.55
39363;BME280;25088;43.238;23.110;2023-05-27T07:14:27;96564.09;;;27.29;45.28
39363;BME280;25088;43.238;23.110;2023-05-27T07:16:53;96559.22;;;27.42;44.81
39363;BME280;25088;43.238;23.110;2023-05-27T07:19:18;96572.69;;;27.88;44.14
39363;BME280;25088;43.238;23.110;2023-05-27T07:21:44;96565.19;;;28.11;43.04
39363;BME280;25088;43.238;23.110;2023-05-27T07:24:09;96573.13;;;28.09;43.33
39363;BME280;25088;43.238;23.110;2023-05-27T07:26:36;96563.69;;;27.98;43.33
39363;BME280;25088;43.238;23.110;2023-05-27T07:29:02;96564.09;;;28.35;42.77
39363;BME280;25088;43.238;23.110;2023-05-27T07:31:28;96549.66;;;28.79;41.07
39363;BME280;25088;43.238;23.110;2023-05-27T07:33:53;96567.91;;;28.66;41.90
39363;BME280;25088;43.238;23.110;2023-05-27T07:36:19;96560.56;;;28.80;41.48
39363;BME280;25088;43.238;23.110;2023-05-27T07:38:45;96572.78;;;28.92;41.09
39363;BME280;25088;43.238;23.110;2023-05-27T07:41:12;96559.47;;;28.66;41.41
39363;BME280;25088;43.238;23.110;2023-05-27T07:43:37;96547.81;;;27.86;43.16
39363;BME280;25088;43.238;23.110;2023-05-27T07:46:03;96575.59;;;27.40;44.23
39363;BME280;25088;43.238;23.110;2023-05-27T07:48:28;96554.06;;;26.81;45.54
39363;BME280;25088;43.238;23.110;2023-05-27T07:50:54;96576.75;;;26.76;46.56
39363;BME280;25088;43.238;23.110;2023-05-27T07:53:20;96561.44;;;26.58;47.30
39363;BME280;25088;43.238;23.110;2023-05-27T07:55:46;96559.63;;;26.65;46.84
39363;BME280;25088;43.238;23.110;2023-05-27T07:58:12;96578.75;;;26.91;47.21
39363;BME280;25088;43.238;23.110;2023-05-27T08:00:37;96581.00;;;26.86;46.55
39363;BME280;25088;43.238;23.110;2023-05-27T08:03:03;96576.47;;;26.81;47.34
39363;BME280;25088;43.238;23.110;2023-05-27T08:05:28;96569.06;;;26.89;46.23
39363;BME280;25088;43.238;23.110;2023-05-27T08:07:54;96570.06;;;27.28;44.97
39363;BME280;25088;43.238;23.110;2023-05-27T08:10:19;96561.28;;;27.45;43.63
39363;BME280;25088;43.238;23.110;2023-05-27T08:12:44;96579.81;;;28.01;43.21
39363;BME280;25088;43.238;23.110;2023-05-27T08:15:10;96577.00;;;28.20;43.04
39363;BME280;25088;43.238;23.110;2023-05-27T08:17:35;96563.50;;;28.45;42.08
39363;BME280;25088;43.238;23.110;2023-05-27T08:20:01;96554.59;;;29.81;39.89
39363;BME280;25088;43.238;23.110;2023-05-27T08:22:26;96544.97;;;30.46;38.90
39363;BME280;25088;43.238;23.110;2023-05-27T08:24:52;96551.72;;;30.71;38.38
39363;BME280;25088;43.238;23.110;2023-05-27T08:27:19;96561.16;;;31.30;37.67
39363;BME280;25088;43.238;23.110;2023-05-27T08:29:46;96550.16;;;30.10;38.41
39363;BME280;25088;43.238;23.110;2023-05-27T08:32:11;96567.56;;;29.36;39.85
39363;BME280;25088;43.238;23.110;2023-05-27T08:34:37;96562.66;;;28.87;40.34
39363;BME280;25088;43.238;23.110;2023-05-27T08:37:02;96567.66;;;28.74;40.94
39363;BME280;25088;43.238;23.110;2023-05-27T08:39:29;96569.13;;;29.10;40.55
39363;BME280;25088;43.238;23.110;2023-05-27T08:41:55;96532.84;;;28.37;42.09
39363;BME280;25088;43.238;23.110;2023-05-27T08:44:24;96565.81;;;28.40;41.54
39363;BME280;25088;43.238;23.110;2023-05-27T08:46:50;96562.31;;;27.05;44.27
39363;BME280;25088;43.238;23.110;2023-05-27T08:49:17;96562.31;;;27.21;45.25
39363;BME280;25088;43.238;23.110;2023-05-27T08:51:43;96563.19;;;26.94;45.02
39363;BME280;25088;43.238;23.110;2023-05-27T08:54:10;96557.78;;;27.01;44.76
39363;BME280;25088;43.238;23.110;2023-05-27T08:56:35;96560.50;;;27.64;43.02
39363;BME280;25088;43.238;23.110;2023-05-27T08:59:02;96556.56;;;27.85;42.54
39363;BME280;25088;43.238;23.110;2023-05-27T09:01:28;96533.63;;;27.98;42.83
39363;BME280;25088;43.238;23.110;2023-05-27T09:03:56;96543.97;;;28.14;43.85
39363;BME280;25088;43.238;23.110;2023-05-27T09:06:22;96560.06;;;27.62;43.56
39363;BME280;25088;43.238;23.110;2023-05-27T09:08:48;96545.47;;;27.37;44.27
39363;BME280;25088;43.238;23.110;2023-05-27T09:11:24;96551.00;;;27.02;45.27
39363;BME280;25088;43.238;23.110;2023-05-27T09:13:53;96551.28;;;26.97;45.73
39363;BME280;25088;43.238;23.110;2023-05-27T09:16:20;96529.88;;;27.20;45.65
39363;BME280;25088;43.238;23.110;2023-05-27T09:18:46;96548.94;;;27.30;44.61
39363;BME280;25088;43.238;23.110;2023-05-27T09:21:11;96532.56;;;27.01;45.11
39363;BME280;25088;43.238;23.110;2023-05-27T09:23:40;96553.63;;;27.26;46.01
39363;BME280;25088;43.238;23.110;2023-05-27T09:26:10;96530.06;;;27.47;45.79
39363;BME280;25088;43.238;23.110;2023-05-27T09:28:36;96532.31;;;27.57;44.83
39363;BME280;25088;43.238;23.110;2023-05-27T09:31:06;96538.03;;;27.45;44.85
39363;BME280;25088;43.238;23.110;2023-05-27T09:33:35;96550.69;;;27.39;45.67
39363;BME280;25088;43.238;23.110;2023-05-27T09:36:02;96548.75;;;27.23;44.82
39363;BME280;25088;43.238;23.110;2023-05-27T09:38:29;96509.16;;;27.09;45.57
39363;BME280;25088;43.238;23.110;2023-05-27T09:40:56;96539.91;;;27.56;45.89
39363;BME280;25088;43.238;23.110;2023-05-27T09:43:24;96537.09;;;27.56;45.33
39363;BME280;25088;43.238;23.110;2023-05-27T09:45:52;96505.13;;;27.42;45.60
39363;BME280;25088;43.238;23.110;2023-05-27T09:48:19;96538.88;;;27.45;46.41
39363;BME280;25088;43.238;23.110;2023-05-27T09:50:46;96534.69;;;27.90;45.54
39363;BME280;25088;43.238;23.110;2023-05-27T09:53:13;96541.41;;;27.86;45.57
39363;BME280;25088;43.238;23.110;2023-05-27T09:55:42;96538.97;;;27.68;45.25
39363;BME280;25088;43.238;23.110;2023-05-27T09:58:09;96537.78;;;27.69;44.42
39363;BME280;25088;43.238;23.110;2023-05-27T10:00:36;96538.13;;;27.48;44.65
39363;BME280;25088;43.238;23.110;2023-05-27T10:03:02;96535.91;;;28.31;43.77
39363;BME280;25088;43.238;23.110;2023-05-27T10:05:28;96535.16;;;28.54;41.88
39363;BME280;25088;43.238;23.110;2023-05-27T10:07:55;96512.97;;;28.91;42.09
39363;BME280;25088;43.238;23.110;2023-05-27T10:10:21;96525.63;;;29.27;40.84
39363;BME280;25088;43.238;23.110;2023-05-27T10:12:49;96532.22;;;29.92;40.05
39363;BME280;25088;43.238;23.110;2023-05-27T10:15:30;96537.69;;;29.28;41.41
39363;BME280;25088;43.238;23.110;2023-05-27T10:23:13;96533.06;;;30.26;37.96
39363;BME280;25088;43.238;23.110;2023-05-27T10:25:45;96519.06;;;31.11;36.97
39363;BME280;25088;43.238;23.110;2023-05-27T10:28:43;96515.28;;;31.40;35.85
39363;BME280;25088;43.238;23.110;2023-05-27T10:31:14;96513.50;;;31.73;34.83
39363;BME280;25088;43.238;23.110;2023-05-27T10:33:47;96512.66;;;31.73;35.26
39363;BME280;25088;43.238;23.110;2023-05-27T10:36:21;96508.03;;;32.05;34.33
39363;BME280;25088;43.238;23.110;2023-05-27T10:39:04;96506.59;;;32.44;33.28
39363;BME280;25088;43.238;23.110;2023-05-27T10:41:50;96496.13;;;32.65;32.38
39363;BME280;25088;43.238;23.110;2023-05-27T10:44:31;96494.97;;;33.34;30.73
39363;BME280;25088;43.238;23.110;2023-05-27T10:47:04;96501.44;;;33.56;31.01
39363;BME280;25088;43.238;23.110;2023-05-27T10:49:38;96498.56;;;33.74;30.76
39363;BME280;25088;43.238;23.110;2023-05-27T10:52:08;96495.69;;;34.03;30.45
39363;BME280;25088;43.238;23.110;2023-05-27T10:54:42;96495.78;;;33.21;31.50
39363;BME280;25088;43.238;23.110;2023-05-27T10:57:08;96486.47;;;33.31;32.78
39363;BME280;25088;43.238;23.110;2023-05-27T10:59:48;96486.09;;;33.32;31.49
39363;BME280;25088;43.238;23.110;2023-05-27T11:02:17;96473.09;;;33.74;30.13
39363;BME280;25088;43.238;23.110;2023-05-27T11:04:43;96485.22;;;33.71;30.64
39363;BME280;25088;43.238;23.110;2023-05-27T11:07:09;96471.31;;;34.27;30.38
39363;BME280;25088;43.238;23.110;2023-05-27T11:12:17;96484.19;;;31.96;33.56
39363;BME280;25088;43.238;23.110;2023-05-27T11:14:44;96477.91;;;30.62;35.47
39363;BME280;25088;43.238;23.110;2023-05-27T11:17:11;96474.03;;;30.36;35.58
39363;BME280;25088;43.238;23.110;2023-05-27T11:19:38;96473.81;;;30.15;36.17
39363;BME280;25088;43.238;23.110;2023-05-27T11:22:06;96473.69;;;29.48;38.07
39363;BME280;25088;43.238;23.110;2023-05-27T11:24:32;96477.38;;;28.76;40.71
39363;BME280;25088;43.238;23.110;2023-05-27T11:26:57;96479.28;;;27.87;42.25
39363;BME280;25088;43.238;23.110;2023-05-27T11:29:23;96454.22;;;27.59;43.28
39363;BME280;25088;43.238;23.110;2023-05-27T11:31:48;96468.31;;;27.43;42.76
39363;BME280;25088;43.238;23.110;2023-05-27T11:34:16;96465.59;;;27.47;42.69
39363;BME280;25088;43.238;23.110;2023-05-27T11:36:44;96469.97;;;29.14;40.75
39363;BME280;25088;43.238;23.110;2023-05-27T11:39:14;96461.16;;;30.02;41.33
39363;BME280;25088;43.238;23.110;2023-05-27T11:41:49;96465.63;;;29.73;39.57
39363;BME280;25088;43.238;23.110;2023-05-27T11:44:16;96455.00;;;29.59;39.30
39363;BME280;25088;43.238;23.110;2023-05-27T11:46:43;96457.59;;;30.05;39.11
39363;BME280;25088;43.238;23.110;2023-05-27T11:49:10;96451.16;;;30.04;38.93
39363;BME280;25088;43.238;23.110;2023-05-27T11:51:43;96452.34;;;29.73;38.35
39363;BME280;25088;43.238;23.110;2023-05-27T11:54:25;96440.94;;;31.15;36.62
39363;BME280;25088;43.238;23.110;2023-05-27T11:56:52;96438.22;;;31.99;35.59
39363;BME280;25088;43.238;23.110;2023-05-27T11:59:19;96443.28;;;31.64;37.32
39363;BME280;25088;43.238;23.110;2023-05-27T12:01:45;96395.31;;;29.76;37.38
39363;BME280;25088;43.238;23.110;2023-05-27T12:04:11;96432.31;;;29.48;39.65
39363;BME280;25088;43.238;23.110;2023-05-27T12:06:37;96434.03;;;30.61;35.19
39363;BME280;25088;43.238;23.110;2023-05-27T12:09:06;96438.59;;;31.24;32.99
39363;BME280;25088;43.238;23.110;2023-05-27T12:11:33;96413.53;;;31.08;34.72
39363;BME280;25088;43.238;23.110;2023-05-27T12:14:00;96432.22;;;32.14;33.95
39363;BME280;25088;43.238;23.110;2023-05-27T12:16:25;96419.00;;;32.79;32.59
39363;BME280;25088;43.238;23.110;2023-05-27T12:18:51;96405.22;;;32.35;32.04
39363;BME280;25088;43.238;23.110;2023-05-27T12:21:17;96412.53;;;32.75;32.05
39363;BME280;25088;43.238;23.110;2023-05-27T12:23:42;96421.44;;;33.06;32.42
39363;BME280;25088;43.238;23.110;2023-05-27T12:26:08;96419.00;;;33.26;31.28
39363;BME280;25088;43.238;23.110;2023-05-27T12:28:35;96412.53;;;33.25;31.54
39363;BME280;25088;43.238;23.110;2023-05-27T12:31:01;96388.72;;;33.05;29.72
39363;BME280;25088;43.238;23.110;2023-05-27T12:33:27;96408.91;;;32.89;31.76
39363;BME280;25088;43.238;23.110;2023-05-27T12:35:52;96401.66;;;32.95;30.66
39363;BME280;25088;43.238;23.110;2023-05-27T12:38:17;96389.53;;;32.73;30.12
39363;BME280;25088;43.238;23.110;2023-05-27T12:40:43;96400.84;;;33.12;29.55
39363;BME280;25088;43.238;23.110;2023-05-27T12:43:09;96393.97;;;32.81;31.17
39363;BME280;25088;43.238;23.110;2023-05-27T12:45:35;96391.56;;;32.48;30.82
39363;BME280;25088;43.238;23.110;2023-05-27T12:48:00;96377.78;;;32.35;31.56
39363;BME280;25088;43.238;23.110;2023-05-27T12:50:27;96390.25;;;32.27;31.15
39363;BME280;25088;43.238;23.110;2023-05-27T12:52:52;96368.53;;;32.60;30.59
39363;BME280;25088;43.238;23.110;2023-05-27T12:55:19;96386.69;;;32.70;31.34
39363;BME280;25088;43.238;23.110;2023-05-27T12:57:46;96381.03;;;32.66;30.83
39363;BME280;25088;43.238;23.110;2023-05-27T13:00:12;96380.22;;;32.62;30.84